sensor_id;sensor_type;location;lat;lon;timestamp;P1;durP1;ratioP1;P2;durP2;ratioP2
537;SDS011;254;48.524;8.926;2022-11-24T00:00:03;7.3;;;1.9;;
537;SDS011;254;48.524;8.926;2022-11-24T00:01:04;6.7;;;1.9;;
537;SDS011;254;48.524;8.926;2022-11-24T00:02:03;8.0;;;2.1;;
537;SDS011;254;48.524;8.926;2022-11-24T00:03:02;8.4;;;2.3;;
537;SDS011;254;48.524;8.926;2022-11-24T00:04:03;6.3;;;1.7;;
537;SDS011;254;48.524;8.926;2022-11-24T00:05:03;5.6;;;1.9;;
537;SDS011;254;48.524;8.926;2022-11-24T00:06:03;5.6;;;2.0;;
537;SDS011;254;48.524;8.926;2022-11-24T00:07:03;7.2;;;2.2;;
537;SDS011;254;48.524;8.926;2022-11-24T00:08:01;6.7;;;2.2;;
537;SDS011;254;48.524;8.926;2022-11-24T00:09:03;6.3;;;2.1;;
537;SDS011;254;48.524;8.926;2022-11-24T00:10:02;8.0;;;2.2;;
537;SDS011;254;48.524;8.926;2022-11-24T00:11:02;11.4;;;2.5;;
537;SDS011;254;48.524;8.926;2022-11-24T00:12:02;5.1;;;1.8;;
537;SDS011;254;48.524;8.926;2022-11-24T00:13:03;8.3;;;2.2;;
537;SDS011;254;48.524;8.926;2022-11-24T00:14:02;9.3;;;1.9;;
537;SDS011;254;48.524;8.926;2022-11-24T00:15:03;7.1;;;2.1;;
537;SDS011;254;48.524;8.926;2022-11-24T00:16:03;7.9;;;2.3;;
537;SDS011;254;48.524;8.926;2022-11-24T00:17:02;6.1;;;2.0;;
537;SDS011;254;48.524;8.926;2022-11-24T00:18:02;10.3;;;2.0;;
537;SDS011;254;48.524;8.926;2022-11-24T00:19:02;5.8;;;2.3;;
537;SDS011;254;48.524;8.926;2022-11-24T00:20:04;7.1;;;1.9;;
537;SDS011;254;48.524;8.926;2022-11-24T00:21:02;6.3;;;1.9;;
537;SDS011;254;48.524;8.926;2022-11-24T00:22:02;6.5;;;2.3;;
537;SDS011;254;48.524;8.926;2022-11-24T00:23:02;5.0;;;2.0;;
537;SDS011;254;48.524;8.926;2022-11-24T00:24:03;9.1;;;2.2;;
537;SDS011;254;48.524;8.926;2022-11-24T00:25:02;4.7;;;1.9;;
537;SDS011;254;48.524;8.926;2022-11-24T00:26:03;5.3;;;1.7;;
537;SDS011;254;48.524;8.926;2022-11-24T00:27:02;6.7;;;2.1;;
537;SDS011;254;48.524;8.926;2022-11-24T00:28:03;4.6;;;2.1;;
537;SDS011;254;48.524;8.926;2022-11-24T00:29:03;5.8;;;1.8;;
537;SDS011;254;48.524;8.926;2022-11-24T00:30:02;5.4;;;1.8;;
537;SDS011;254;48.524;8.926;2022-11-24T00:31:02;6.8;;;1.7;;
537;SDS011;254;48.524;8.926;2022-11-24T00:32:02;6.6;;;1.9;;
537;SDS011;254;48.524;8.926;2022-11-24T00:33:03;7.7;;;2.0;;
537;SDS011;254;48.524;8.926;2022-11-24T00:34:02;6.0;;;1.9;;
537;SDS011;254;48.524;8.926;2022-11-24T00:35:02;9.1;;;2.0;;
537;SDS011;254;48.524;8.926;2022-11-24T00:36:03;6.4;;;2.0;;
537;SDS011;254;48.524;8.926;2022-11-24T00:37:02;7.1;;;1.9;;
537;SDS011;254;48.524;8.926;2022-11-24T00:38:02;4.0;;;1.6;;
537;SDS011;254;48.524;8.926;2022-11-24T00:39:03;4.7;;;1.7;;
537;SDS011;254;48.524;8.926;2022-11-24T00:40:03;6.5;;;2.0;;
537;SDS011;254;48.524;8.926;2022-11-24T00:41:02;6.2;;;2.1;;
537;SDS011;254;48.524;8.926;2022-11-24T00:42:03;6.8;;;2.0;;
537;SDS011;254;48.524;8.926;2022-11-24T00:43:02;5.6;;;1.7;;
537;SDS011;254;48.524;8.926;2022-11-24T00:44:02;6.4;;;2.1;;
537;SDS011;254;48.524;8.926;2022-11-24T00:45:03;6.6;;;1.9;;
537;SDS011;254;48.524;8.926;2022-11-24T00:46:02;8.2;;;1.8;;
537;SDS011;254;48.524;8.926;2022-11-24T00:47:02;5.4;;;1.8;;
537;SDS011;254;48.524;8.926;2022-11-24T00:48:03;6.8;;;1.8;;
537;SDS011;254;48.524;8.926;2022-11-24T00:49:02;4.4;;;1.8;;
537;SDS011;254;48.524;8.926;2022-11-24T00:50:02;8.1;;;1.8;;
537;SDS011;254;48.524;8.926;2022-11-24T00:51:02;7.7;;;1.9;;
537;SDS011;254;48.524;8.926;2022-11-24T00:52:02;6.2;;;2.1;;
537;SDS011;254;48.524;8.926;2022-11-24T00:53:03;7.4;;;1.9;;
537;SDS011;254;48.524;8.926;2022-11-24T00:54:02;4.5;;;1.6;;
537;SDS011;254;48.524;8.926;2022-11-24T00:55:02;6.6;;;1.8;;
537;SDS011;254;48.524;8.926;2022-11-24T00:56:03;5.6;;;1.9;;
537;SDS011;254;48.524;8.926;2022-11-24T00:57:02;7.5;;;2.0;;
537;SDS011;254;48.524;8.926;2022-11-24T00:58:02;7.5;;;1.9;;
537;SDS011;254;48.524;8.926;2022-11-24T00:59:02;6.4;;;1.6;;
537;SDS011;254;48.524;8.926;2022-11-24T01:00:02;3.9;;;1.8;;
537;SDS011;254;48.524;8.926;2022-11-24T01:01:03;6.0;;;1.5;;
537;SDS011;254;48.524;8.926;2022-11-24T01:02:01;5.7;;;1.7;;
537;SDS011;254;48.524;8.926;2022-11-24T01:03:02;4.9;;;1.6;;
537;SDS011;254;48.524;8.926;2022-11-24T01:04:03;8.6;;;1.8;;
537;SDS011;254;48.524;8.926;2022-11-24T01:05:02;6.3;;;1.6;;
537;SDS011;254;48.524;8.926;2022-11-24T01:06:02;5.6;;;1.7;;
537;SDS011;254;48.524;8.926;2022-11-24T01:07:03;6.9;;;1.8;;
537;SDS011;254;48.524;8.926;2022-11-24T01:08:02;5.4;;;1.8;;
537;SDS011;254;48.524;8.926;2022-11-24T01:09:02;5.8;;;1.6;;
537;SDS011;254;48.524;8.926;2022-11-24T01:10:03;4.8;;;1.9;;
537;SDS011;254;48.524;8.926;2022-11-24T01:11:06;3.6;;;1.6;;
537;SDS011;254;48.524;8.926;2022-11-24T01:12:02;5.9;;;1.8;;
537;SDS011;254;48.524;8.926;2022-11-24T01:13:03;3.7;;;1.6;;
537;SDS011;254;48.524;8.926;2022-11-24T01:14:03;4.0;;;1.4;;
537;SDS011;254;48.524;8.926;2022-11-24T01:15:02;5.8;;;1.6;;
537;SDS011;254;48.524;8.926;2022-11-24T01:16:02;7.8;;;1.9;;
537;SDS011;254;48.524;8.926;2022-11-24T01:17:02;5.4;;;1.8;;
537;SDS011;254;48.524;8.926;2022-11-24T01:18:02;6.6;;;1.7;;
537;SDS011;254;48.524;8.926;2022-11-24T01:19:02;4.8;;;1.6;;
537;SDS011;254;48.524;8.926;2022-11-24T01:20:02;5.5;;;1.5;;
537;SDS011;254;48.524;8.926;2022-11-24T01:21:02;6.5;;;1.6;;
537;SDS011;254;48.524;8.926;2022-11-24T01:22:02;8.7;;;1.9;;
537;SDS011;254;48.524;8.926;2022-11-24T01:23:02;5.2;;;1.5;;
537;SDS011;254;48.524;8.926;2022-11-24T01:24:01;6.0;;;1.6;;
537;SDS011;254;48.524;8.926;2022-11-24T01:25:02;5.2;;;1.5;;
537;SDS011;254;48.524;8.926;2022-11-24T01:26:03;5.7;;;1.5;;
537;SDS011;254;48.524;8.926;2022-11-24T01:27:01;4.0;;;1.7;;
537;SDS011;254;48.524;8.926;2022-11-24T01:28:02;6.0;;;1.7;;
537;SDS011;254;48.524;8.926;2022-11-24T01:29:03;3.3;;;1.6;;
537;SDS011;254;48.524;8.926;2022-11-24T01:30:03;5.1;;;1.9;;
537;SDS011;254;48.524;8.926;2022-11-24T01:31:03;8.6;;;1.6;;
537;SDS011;254;48.524;8.926;2022-11-24T01:32:02;6.2;;;1.6;;
537;SDS011;254;48.524;8.926;2022-11-24T01:33:02;6.3;;;1.7;;
537;SDS011;254;48.524;8.926;2022-11-24T01:34:03;7.0;;;1.7;;
537;SDS011;254;48.524;8.926;2022-11-24T01:35:02;5.3;;;1.5;;
537;SDS011;254;48.524;8.926;2022-11-24T01:36:03;3.3;;;1.5;;
537;SDS011;254;48.524;8.926;2022-11-24T01:37:03;5.4;;;1.5;;
537;SDS011;254;48.524;8.926;2022-11-24T01:38:01;5.5;;;1.8;;
537;SDS011;254;48.524;8.926;2022-11-24T01:39:02;5.6;;;1.5;;
537;SDS011;254;48.524;8.926;2022-11-24T01:40:03;6.8;;;1.8;;
537;SDS011;254;48.524;8.926;2022-11-24T01:41:03;7.2;;;1.9;;
537;SDS011;254;48.524;8.926;2022-11-24T01:42:02;4.5;;;1.7;;
537;SDS011;254;48.524;8.926;2022-11-24T01:43:13;6.3;;;1.5;;
537;SDS011;254;48.524;8.926;2022-11-24T01:44:18;6.1;;;1.8;;
537;SDS011;254;48.524;8.926;2022-11-24T01:45:25;4.5;;;1.5;;
537;SDS011;254;48.524;8.926;2022-11-24T01:46:02;4.1;;;1.4;;
537;SDS011;254;48.524;8.926;2022-11-24T01:47:03;4.8;;;1.6;;
537;SDS011;254;48.524;8.926;2022-11-24T01:48:03;5.0;;;1.7;;
537;SDS011;254;48.524;8.926;2022-11-24T01:49:03;4.4;;;1.5;;
537;SDS011;254;48.524;8.926;2022-11-24T01:50:02;4.4;;;1.4;;
537;SDS011;254;48.524;8.926;2022-11-24T01:51:04;4.0;;;1.5;;
537;SDS011;254;48.524;8.926;2022-11-24T01:52:03;4.8;;;1.4;;
537;SDS011;254;48.524;8.926;2022-11-24T01:53:02;4.8;;;1.7;;
537;SDS011;254;48.524;8.926;2022-11-24T01:54:04;4.8;;;1.5;;
537;SDS011;254;48.524;8.926;2022-11-24T01:55:02;3.6;;;1.4;;
537;SDS011;254;48.524;8.926;2022-11-24T01:56:02;4.6;;;1.6;;
537;SDS011;254;48.524;8.926;2022-11-24T01:57:04;4.6;;;1.4;;
537;SDS011;254;48.524;8.926;2022-11-24T01:58:03;3.2;;;1.5;;
537;SDS011;254;48.524;8.926;2022-11-24T01:59:03;5.3;;;1.3;;
537;SDS011;254;48.524;8.926;2022-11-24T02:00:03;4.7;;;1.5;;
537;SDS011;254;48.524;8.926;2022-11-24T02:01:03;4.7;;;1.4;;
537;SDS011;254;48.524;8.926;2022-11-24T02:02:02;5.9;;;1.3;;
537;SDS011;254;48.524;8.926;2022-11-24T02:03:02;4.3;;;1.3;;
537;SDS011;254;48.524;8.926;2022-11-24T02:04:03;5.3;;;1.4;;
537;SDS011;254;48.524;8.926;2022-11-24T02:05:03;4.8;;;1.7;;
537;SDS011;254;48.524;8.926;2022-11-24T02:06:02;4.7;;;1.4;;
537;SDS011;254;48.524;8.926;2022-11-24T02:07:02;4.7;;;1.5;;
537;SDS011;254;48.524;8.926;2022-11-24T02:08:02;7.2;;;1.8;;
537;SDS011;254;48.524;8.926;2022-11-24T02:09:04;7.2;;;1.5;;
537;SDS011;254;48.524;8.926;2022-11-24T02:10:03;5.9;;;1.5;;
537;SDS011;254;48.524;8.926;2022-11-24T02:11:02;4.2;;;1.3;;
537;SDS011;254;48.524;8.926;2022-11-24T02:12:02;6.4;;;1.5;;
537;SDS011;254;48.524;8.926;2022-11-24T02:13:03;2.8;;;1.4;;
537;SDS011;254;48.524;8.926;2022-11-24T02:14:02;4.6;;;1.3;;
537;SDS011;254;48.524;8.926;2022-11-24T02:15:02;4.4;;;1.4;;
537;SDS011;254;48.524;8.926;2022-11-24T02:16:02;3.8;;;1.2;;
537;SDS011;254;48.524;8.926;2022-11-24T02:17:03;4.5;;;1.3;;
537;SDS011;254;48.524;8.926;2022-11-24T02:18:02;4.2;;;1.5;;
537;SDS011;254;48.524;8.926;2022-11-24T02:19:03;3.8;;;1.3;;
537;SDS011;254;48.524;8.926;2022-11-24T02:20:03;5.7;;;1.4;;
537;SDS011;254;48.524;8.926;2022-11-24T02:21:02;3.1;;;1.3;;
537;SDS011;254;48.524;8.926;2022-11-24T02:22:02;5.2;;;1.3;;
537;SDS011;254;48.524;8.926;2022-11-24T02:23:04;5.3;;;1.4;;
537;SDS011;254;48.524;8.926;2022-11-24T02:24:03;4.5;;;1.4;;
537;SDS011;254;48.524;8.926;2022-11-24T02:25:05;6.3;;;1.5;;
537;SDS011;254;48.524;8.926;2022-11-24T02:26:03;4.4;;;1.5;;
537;SDS011;254;48.524;8.926;2022-11-24T02:27:03;2.8;;;1.3;;
537;SDS011;254;48.524;8.926;2022-11-24T02:28:03;4.6;;;1.3;;
537;SDS011;254;48.524;8.926;2022-11-24T02:29:02;4.5;;;1.7;;
537;SDS011;254;48.524;8.926;2022-11-24T02:30:03;4.2;;;1.4;;
537;SDS011;254;48.524;8.926;2022-11-24T02:31:01;5.3;;;1.6;;
537;SDS011;254;48.524;8.926;2022-11-24T02:32:02;5.1;;;1.5;;
537;SDS011;254;48.524;8.926;2022-11-24T02:33:02;5.0;;;1.3;;
537;SDS011;254;48.524;8.926;2022-11-24T02:34:02;3.2;;;1.4;;
537;SDS011;254;48.524;8.926;2022-11-24T02:35:03;3.6;;;1.3;;
537;SDS011;254;48.524;8.926;2022-11-24T02:36:03;5.8;;;1.7;;
537;SDS011;254;48.524;8.926;2022-11-24T02:37:02;2.6;;;1.3;;
537;SDS011;254;48.524;8.926;2022-11-24T02:38:02;6.3;;;1.8;;
537;SDS011;254;48.524;8.926;2022-11-24T02:39:04;5.7;;;1.3;;
537;SDS011;254;48.524;8.926;2022-11-24T02:40:02;4.2;;;1.3;;
537;SDS011;254;48.524;8.926;2022-11-24T02:41:02;4.5;;;1.5;;
537;SDS011;254;48.524;8.926;2022-11-24T02:42:03;5.2;;;1.8;;
537;SDS011;254;48.524;8.926;2022-11-24T02:43:03;3.7;;;1.4;;
537;SDS011;254;48.524;8.926;2022-11-24T02:44:03;3.8;;;1.2;;
537;SDS011;254;48.524;8.926;2022-11-24T02:45:03;4.6;;;1.3;;
537;SDS011;254;48.524;8.926;2022-11-24T02:46:02;3.3;;;1.3;;
537;SDS011;254;48.524;8.926;2022-11-24T02:47:03;2.8;;;1.3;;
537;SDS011;254;48.524;8.926;2022-11-24T02:48:01;4.7;;;1.5;;
537;SDS011;254;48.524;8.926;2022-11-24T02:49:02;3.6;;;1.3;;
537;SDS011;254;48.524;8.926;2022-11-24T02:50:03;4.4;;;1.3;;
537;SDS011;254;48.524;8.926;2022-11-24T02:51:02;3.4;;;1.3;;
537;SDS011;254;48.524;8.926;2022-11-24T02:52:03;6.1;;;1.4;;
537;SDS011;254;48.524;8.926;2022-11-24T02:53:01;6.2;;;1.4;;
537;SDS011;254;48.524;8.926;2022-11-24T02:54:02;6.4;;;1.5;;
537;SDS011;254;48.524;8.926;2022-11-24T02:55:03;4.5;;;1.3;;
537;SDS011;254;48.524;8.926;2022-11-24T02:56:02;8.6;;;1.8;;
537;SDS011;254;48.524;8.926;2022-11-24T02:57:02;4.9;;;1.4;;
537;SDS011;254;48.524;8.926;2022-11-24T02:58:02;5.4;;;1.5;;
537;SDS011;254;48.524;8.926;2022-11-24T02:59:02;3.9;;;1.4;;
537;SDS011;254;48.524;8.926;2022-11-24T03:00:03;3.9;;;1.1;;
537;SDS011;254;48.524;8.926;2022-11-24T03:01:03;5.2;;;1.4;;
537;SDS011;254;48.524;8.926;2022-11-24T03:02:02;4.6;;;1.2;;
537;SDS011;254;48.524;8.926;2022-11-24T03:03:02;3.8;;;1.3;;
537;SDS011;254;48.524;8.926;2022-11-24T03:04:03;4.1;;;1.2;;
537;SDS011;254;48.524;8.926;2022-11-24T03:05:04;4.2;;;1.2;;
537;SDS011;254;48.524;8.926;2022-11-24T03:06:02;4.1;;;1.3;;
537;SDS011;254;48.524;8.926;2022-11-24T03:07:02;3.8;;;1.5;;
537;SDS011;254;48.524;8.926;2022-11-24T03:08:02;5.3;;;1.5;;
537;SDS011;254;48.524;8.926;2022-11-24T03:09:02;5.1;;;1.3;;
537;SDS011;254;48.524;8.926;2022-11-24T03:10:02;4.3;;;1.2;;
537;SDS011;254;48.524;8.926;2022-11-24T03:11:02;4.4;;;1.4;;
537;SDS011;254;48.524;8.926;2022-11-24T03:12:01;4.9;;;1.6;;
537;SDS011;254;48.524;8.926;2022-11-24T03:13:02;5.5;;;1.6;;
537;SDS011;254;48.524;8.926;2022-11-24T03:14:03;5.9;;;1.9;;
537;SDS011;254;48.524;8.926;2022-11-24T03:15:01;7.1;;;1.7;;
537;SDS011;254;48.524;8.926;2022-11-24T03:16:06;2.7;;;1.2;;
537;SDS011;254;48.524;8.926;2022-11-24T03:17:03;3.2;;;1.2;;
537;SDS011;254;48.524;8.926;2022-11-24T03:18:02;3.6;;;1.2;;
537;SDS011;254;48.524;8.926;2022-11-24T03:19:02;4.9;;;1.6;;
537;SDS011;254;48.524;8.926;2022-11-24T03:20:03;6.8;;;1.9;;
537;SDS011;254;48.524;8.926;2022-11-24T03:21:02;4.2;;;1.4;;
537;SDS011;254;48.524;8.926;2022-11-24T03:22:02;5.4;;;1.6;;
537;SDS011;254;48.524;8.926;2022-11-24T03:23:02;4.7;;;1.8;;
537;SDS011;254;48.524;8.926;2022-11-24T03:24:02;5.9;;;1.5;;
537;SDS011;254;48.524;8.926;2022-11-24T03:25:02;6.6;;;2.1;;
537;SDS011;254;48.524;8.926;2022-11-24T03:26:09;4.4;;;1.6;;
537;SDS011;254;48.524;8.926;2022-11-24T03:27:02;5.6;;;1.5;;
537;SDS011;254;48.524;8.926;2022-11-24T03:28:02;5.8;;;1.7;;
537;SDS011;254;48.524;8.926;2022-11-24T03:29:02;4.3;;;1.8;;
537;SDS011;254;48.524;8.926;2022-11-24T03:30:03;6.3;;;1.6;;
537;SDS011;254;48.524;8.926;2022-11-24T03:31:03;5.6;;;1.7;;
537;SDS011;254;48.524;8.926;2022-11-24T03:32:02;8.2;;;1.7;;
537;SDS011;254;48.524;8.926;2022-11-24T03:33:02;7.1;;;1.6;;
537;SDS011;254;48.524;8.926;2022-11-24T03:34:03;7.3;;;1.7;;
537;SDS011;254;48.524;8.926;2022-11-24T03:35:02;4.8;;;1.5;;
537;SDS011;254;48.524;8.926;2022-11-24T03:36:02;5.2;;;1.5;;
537;SDS011;254;48.524;8.926;2022-11-24T03:37:02;3.8;;;1.5;;
537;SDS011;254;48.524;8.926;2022-11-24T03:38:02;6.6;;;1.5;;
537;SDS011;254;48.524;8.926;2022-11-24T03:39:02;4.9;;;1.7;;
537;SDS011;254;48.524;8.926;2022-11-24T03:40:03;7.5;;;1.8;;
537;SDS011;254;48.524;8.926;2022-11-24T03:41:02;8.3;;;1.6;;
537;SDS011;254;48.524;8.926;2022-11-24T03:42:02;4.7;;;1.7;;
537;SDS011;254;48.524;8.926;2022-11-24T03:43:02;4.9;;;1.3;;
537;SDS011;254;48.524;8.926;2022-11-24T03:44:02;6.2;;;1.6;;
537;SDS011;254;48.524;8.926;2022-11-24T03:45:02;9.4;;;2.0;;
537;SDS011;254;48.524;8.926;2022-11-24T03:46:02;5.9;;;1.9;;
537;SDS011;254;48.524;8.926;2022-11-24T03:47:02;7.6;;;1.7;;
537;SDS011;254;48.524;8.926;2022-11-24T03:48:03;6.4;;;1.4;;
537;SDS011;254;48.524;8.926;2022-11-24T03:49:02;10.0;;;1.8;;
537;SDS011;254;48.524;8.926;2022-11-24T03:50:02;5.7;;;1.9;;
537;SDS011;254;48.524;8.926;2022-11-24T03:51:03;9.5;;;1.8;;
537;SDS011;254;48.524;8.926;2022-11-24T03:52:02;9.3;;;2.0;;
537;SDS011;254;48.524;8.926;2022-11-24T03:53:02;8.8;;;2.2;;
537;SDS011;254;48.524;8.926;2022-11-24T03:54:02;5.5;;;1.7;;
537;SDS011;254;48.524;8.926;2022-11-24T03:55:02;4.7;;;2.0;;
537;SDS011;254;48.524;8.926;2022-11-24T03:56:03;5.4;;;1.7;;
537;SDS011;254;48.524;8.926;2022-11-24T03:57:01;9.7;;;1.9;;
537;SDS011;254;48.524;8.926;2022-11-24T03:58:02;8.3;;;1.8;;
537;SDS011;254;48.524;8.926;2022-11-24T03:59:03;7.9;;;2.4;;
537;SDS011;254;48.524;8.926;2022-11-24T04:00:03;6.5;;;1.7;;
537;SDS011;254;48.524;8.926;2022-11-24T04:01:02;5.5;;;1.6;;
537;SDS011;254;48.524;8.926;2022-11-24T04:02:02;6.8;;;1.6;;
537;SDS011;254;48.524;8.926;2022-11-24T04:03:03;6.8;;;1.7;;
537;SDS011;254;48.524;8.926;2022-11-24T04:04:02;8.8;;;1.8;;
537;SDS011;254;48.524;8.926;2022-11-24T04:05:03;5.6;;;1.7;;
537;SDS011;254;48.524;8.926;2022-11-24T04:06:02;7.6;;;1.7;;
537;SDS011;254;48.524;8.926;2022-11-24T04:07:03;10.4;;;2.1;;
537;SDS011;254;48.524;8.926;2022-11-24T04:08:04;6.2;;;1.6;;
537;SDS011;254;48.524;8.926;2022-11-24T04:09:02;8.7;;;1.8;;
537;SDS011;254;48.524;8.926;2022-11-24T04:10:03;5.9;;;1.6;;
537;SDS011;254;48.524;8.926;2022-11-24T04:11:01;4.0;;;1.4;;
537;SDS011;254;48.524;8.926;2022-11-24T04:12:02;8.7;;;2.0;;
537;SDS011;254;48.524;8.926;2022-11-24T04:13:03;7.2;;;1.6;;
537;SDS011;254;48.524;8.926;2022-11-24T04:14:01;6.4;;;1.6;;
537;SDS011;254;48.524;8.926;2022-11-24T04:15:02;5.0;;;1.6;;
537;SDS011;254;48.524;8.926;2022-11-24T04:16:04;6.4;;;1.6;;
537;SDS011;254;48.524;8.926;2022-11-24T04:17:02;6.2;;;1.7;;
537;SDS011;254;48.524;8.926;2022-11-24T04:18:02;9.0;;;1.9;;
537;SDS011;254;48.524;8.926;2022-11-24T04:19:02;6.5;;;1.7;;
537;SDS011;254;48.524;8.926;2022-11-24T04:20:03;5.5;;;1.4;;
537;SDS011;254;48.524;8.926;2022-11-24T04:21:02;5.8;;;2.0;;
537;SDS011;254;48.524;8.926;2022-11-24T04:22:03;5.6;;;1.3;;
537;SDS011;254;48.524;8.926;2022-11-24T04:23:02;6.0;;;1.5;;
537;SDS011;254;48.524;8.926;2022-11-24T04:24:03;5.0;;;1.5;;
537;SDS011;254;48.524;8.926;2022-11-24T04:25:03;5.0;;;1.7;;
537;SDS011;254;48.524;8.926;2022-11-24T04:26:02;6.3;;;1.4;;
537;SDS011;254;48.524;8.926;2022-11-24T04:27:03;2.7;;;1.4;;
537;SDS011;254;48.524;8.926;2022-11-24T04:28:01;5.7;;;2.2;;
537;SDS011;254;48.524;8.926;2022-11-24T04:29:02;8.0;;;1.8;;
537;SDS011;254;48.524;8.926;2022-11-24T04:30:03;4.5;;;1.8;;
537;SDS011;254;48.524;8.926;2022-11-24T04:31:02;5.5;;;1.5;;
537;SDS011;254;48.524;8.926;2022-11-24T04:32:02;5.2;;;1.5;;
537;SDS011;254;48.524;8.926;2022-11-24T04:33:03;3.9;;;1.4;;
537;SDS011;254;48.524;8.926;2022-11-24T04:34:02;7.1;;;1.7;;
537;SDS011;254;48.524;8.926;2022-11-24T04:35:02;4.3;;;1.6;;
537;SDS011;254;48.524;8.926;2022-11-24T04:36:03;3.9;;;1.6;;
537;SDS011;254;48.524;8.926;2022-11-24T04:37:02;8.3;;;1.8;;
537;SDS011;254;48.524;8.926;2022-11-24T04:38:02;5.0;;;1.4;;
537;SDS011;254;48.524;8.926;2022-11-24T04:39:02;4.8;;;1.4;;
537;SDS011;254;48.524;8.926;2022-11-24T04:40:03;4.9;;;1.6;;
537;SDS011;254;48.524;8.926;2022-11-24T04:41:03;6.0;;;1.5;;
537;SDS011;254;48.524;8.926;2022-11-24T04:42:02;7.7;;;1.9;;
537;SDS011;254;48.524;8.926;2022-11-24T04:43:03;5.5;;;1.6;;
537;SDS011;254;48.524;8.926;2022-11-24T04:44:02;11.3;;;1.9;;
537;SDS011;254;48.524;8.926;2022-11-24T04:45:03;8.5;;;1.7;;
537;SDS011;254;48.524;8.926;2022-11-24T04:46:02;7.3;;;1.7;;
537;SDS011;254;48.524;8.926;2022-11-24T04:47:03;4.4;;;1.6;;
537;SDS011;254;48.524;8.926;2022-11-24T04:48:02;6.8;;;2.2;;
537;SDS011;254;48.524;8.926;2022-11-24T04:49:02;6.6;;;1.9;;
537;SDS011;254;48.524;8.926;2022-11-24T04:50:03;11.3;;;2.0;;
537;SDS011;254;48.524;8.926;2022-11-24T04:51:03;7.7;;;1.9;;
537;SDS011;254;48.524;8.926;2022-11-24T04:52:03;6.2;;;1.7;;
537;SDS011;254;48.524;8.926;2022-11-24T04:53:01;8.7;;;2.3;;
537;SDS011;254;48.524;8.926;2022-11-24T04:54:02;5.2;;;2.1;;
537;SDS011;254;48.524;8.926;2022-11-24T04:55:03;9.2;;;2.8;;
537;SDS011;254;48.524;8.926;2022-11-24T04:56:03;6.5;;;2.3;;
537;SDS011;254;48.524;8.926;2022-11-24T04:57:02;6.3;;;2.6;;
537;SDS011;254;48.524;8.926;2022-11-24T04:58:03;5.9;;;2.5;;
537;SDS011;254;48.524;8.926;2022-11-24T04:59:02;5.7;;;2.6;;
537;SDS011;254;48.524;8.926;2022-11-24T05:00:03;6.1;;;3.2;;
537;SDS011;254;48.524;8.926;2022-11-24T05:01:05;9.1;;;4.4;;
537;SDS011;254;48.524;8.926;2022-11-24T05:02:02;12.2;;;6.1;;
537;SDS011;254;48.524;8.926;2022-11-24T05:03:02;11.6;;;6.1;;
537;SDS011;254;48.524;8.926;2022-11-24T05:04:02;10.7;;;5.2;;
537;SDS011;254;48.524;8.926;2022-11-24T05:05:02;9.1;;;4.7;;
537;SDS011;254;48.524;8.926;2022-11-24T05:06:02;13.1;;;6.3;;
537;SDS011;254;48.524;8.926;2022-11-24T05:07:03;12.5;;;8.2;;
537;SDS011;254;48.524;8.926;2022-11-24T05:08:02;10.7;;;7.5;;
537;SDS011;254;48.524;8.926;2022-11-24T05:09:02;10.5;;;5.9;;
537;SDS011;254;48.524;8.926;2022-11-24T05:10:03;10.3;;;5.4;;
537;SDS011;254;48.524;8.926;2022-11-24T05:11:03;12.6;;;5.5;;
537;SDS011;254;48.524;8.926;2022-11-24T05:12:02;9.6;;;5.9;;
537;SDS011;254;48.524;8.926;2022-11-24T05:13:03;12.5;;;6.6;;
537;SDS011;254;48.524;8.926;2022-11-24T05:14:02;11.3;;;6.5;;
537;SDS011;254;48.524;8.926;2022-11-24T05:15:02;13.7;;;7.0;;
537;SDS011;254;48.524;8.926;2022-11-24T05:16:02;11.4;;;5.8;;
537;SDS011;254;48.524;8.926;2022-11-24T05:17:02;15.1;;;5.7;;
537;SDS011;254;48.524;8.926;2022-11-24T05:18:02;11.0;;;6.3;;
537;SDS011;254;48.524;8.926;2022-11-24T05:19:02;10.8;;;6.6;;
537;SDS011;254;48.524;8.926;2022-11-24T05:20:02;10.1;;;6.3;;
537;SDS011;254;48.524;8.926;2022-11-24T05:21:03;13.5;;;6.2;;
537;SDS011;254;48.524;8.926;2022-11-24T05:22:02;10.3;;;7.3;;
537;SDS011;254;48.524;8.926;2022-11-24T05:23:02;13.7;;;8.4;;
537;SDS011;254;48.524;8.926;2022-11-24T05:24:03;11.1;;;8.0;;
537;SDS011;254;48.524;8.926;2022-11-24T05:25:03;14.6;;;7.8;;
537;SDS011;254;48.524;8.926;2022-11-24T05:26:03;11.4;;;8.6;;
537;SDS011;254;48.524;8.926;2022-11-24T05:27:02;12.0;;;8.4;;
537;SDS011;254;48.524;8.926;2022-11-24T05:28:03;11.2;;;6.5;;
537;SDS011;254;48.524;8.926;2022-11-24T05:29:02;9.9;;;5.1;;
537;SDS011;254;48.524;8.926;2022-11-24T05:30:03;10.3;;;4.6;;
537;SDS011;254;48.524;8.926;2022-11-24T05:31:03;11.1;;;7.3;;
537;SDS011;254;48.524;8.926;2022-11-24T05:32:02;12.4;;;8.7;;
537;SDS011;254;48.524;8.926;2022-11-24T05:33:04;12.8;;;9.1;;
537;SDS011;254;48.524;8.926;2022-11-24T05:34:03;11.9;;;7.4;;
537;SDS011;254;48.524;8.926;2022-11-24T05:35:03;8.6;;;5.9;;
537;SDS011;254;48.524;8.926;2022-11-24T05:36:03;11.0;;;6.6;;
537;SDS011;254;48.524;8.926;2022-11-24T05:37:02;5.8;;;4.7;;
537;SDS011;254;48.524;8.926;2022-11-24T05:38:02;11.9;;;5.9;;
537;SDS011;254;48.524;8.926;2022-11-24T05:39:04;8.5;;;4.9;;
537;SDS011;254;48.524;8.926;2022-11-24T05:40:03;9.3;;;5.2;;
537;SDS011;254;48.524;8.926;2022-11-24T05:41:01;9.9;;;4.8;;
537;SDS011;254;48.524;8.926;2022-11-24T05:42:03;11.8;;;4.8;;
537;SDS011;254;48.524;8.926;2022-11-24T05:43:01;11.9;;;4.9;;
537;SDS011;254;48.524;8.926;2022-11-24T05:44:02;6.5;;;3.5;;
537;SDS011;254;48.524;8.926;2022-11-24T05:45:03;9.7;;;3.4;;
537;SDS011;254;48.524;8.926;2022-11-24T05:46:02;9.1;;;3.1;;
537;SDS011;254;48.524;8.926;2022-11-24T05:47:02;6.5;;;2.4;;
537;SDS011;254;48.524;8.926;2022-11-24T05:48:03;6.1;;;2.5;;
537;SDS011;254;48.524;8.926;2022-11-24T05:49:02;5.5;;;2.4;;
537;SDS011;254;48.524;8.926;2022-11-24T05:50:03;6.2;;;2.3;;
537;SDS011;254;48.524;8.926;2022-11-24T05:51:02;4.2;;;2.0;;
537;SDS011;254;48.524;8.926;2022-11-24T05:52:02;5.4;;;2.1;;
537;SDS011;254;48.524;8.926;2022-11-24T05:53:03;6.8;;;2.0;;
537;SDS011;254;48.524;8.926;2022-11-24T05:54:03;5.3;;;2.0;;
537;SDS011;254;48.524;8.926;2022-11-24T05:55:03;6.3;;;1.7;;
537;SDS011;254;48.524;8.926;2022-11-24T05:56:02;6.2;;;1.8;;
537;SDS011;254;48.524;8.926;2022-11-24T05:57:02;4.2;;;1.8;;
537;SDS011;254;48.524;8.926;2022-11-24T05:58:03;4.7;;;2.1;;
537;SDS011;254;48.524;8.926;2022-11-24T05:59:02;8.3;;;1.8;;
537;SDS011;254;48.524;8.926;2022-11-24T06:00:03;7.4;;;1.7;;
537;SDS011;254;48.524;8.926;2022-11-24T06:01:04;7.5;;;1.7;;
537;SDS011;254;48.524;8.926;2022-11-24T06:02:03;13.3;;;2.0;;
537;SDS011;254;48.524;8.926;2022-11-24T06:03:03;9.7;;;2.2;;
537;SDS011;254;48.524;8.926;2022-11-24T06:04:02;11.6;;;2.1;;
537;SDS011;254;48.524;8.926;2022-11-24T06:05:03;7.2;;;1.8;;
537;SDS011;254;48.524;8.926;2022-11-24T06:06:01;10.4;;;2.0;;
537;SDS011;254;48.524;8.926;2022-11-24T06:07:05;7.2;;;1.7;;
537;SDS011;254;48.524;8.926;2022-11-24T06:08:03;6.9;;;1.6;;
537;SDS011;254;48.524;8.926;2022-11-24T06:09:02;7.4;;;2.2;;
537;SDS011;254;48.524;8.926;2022-11-24T06:10:03;11.2;;;2.7;;
537;SDS011;254;48.524;8.926;2022-11-24T06:11:02;8.6;;;2.1;;
537;SDS011;254;48.524;8.926;2022-11-24T06:12:02;11.6;;;2.4;;
537;SDS011;254;48.524;8.926;2022-11-24T06:13:03;6.3;;;1.7;;
537;SDS011;254;48.524;8.926;2022-11-24T06:14:02;6.8;;;1.8;;
537;SDS011;254;48.524;8.926;2022-11-24T06:15:02;7.7;;;1.8;;
537;SDS011;254;48.524;8.926;2022-11-24T06:16:02;5.5;;;1.9;;
537;SDS011;254;48.524;8.926;2022-11-24T06:17:02;9.3;;;2.3;;
537;SDS011;254;48.524;8.926;2022-11-24T06:18:03;5.3;;;2.0;;
537;SDS011;254;48.524;8.926;2022-11-24T06:19:02;7.0;;;2.5;;
537;SDS011;254;48.524;8.926;2022-11-24T06:20:03;8.5;;;2.1;;
537;SDS011;254;48.524;8.926;2022-11-24T06:21:03;7.4;;;2.1;;
537;SDS011;254;48.524;8.926;2022-11-24T06:22:02;7.3;;;2.1;;
537;SDS011;254;48.524;8.926;2022-11-24T06:23:02;6.0;;;2.4;;
537;SDS011;254;48.524;8.926;2022-11-24T06:24:02;9.1;;;2.2;;
537;SDS011;254;48.524;8.926;2022-11-24T06:25:03;12.5;;;2.3;;
537;SDS011;254;48.524;8.926;2022-11-24T06:26:02;7.4;;;2.0;;
537;SDS011;254;48.524;8.926;2022-11-24T06:27:02;8.5;;;1.9;;
537;SDS011;254;48.524;8.926;2022-11-24T06:28:02;7.7;;;2.2;;
537;SDS011;254;48.524;8.926;2022-11-24T06:29:02;8.9;;;1.9;;
537;SDS011;254;48.524;8.926;2022-11-24T06:30:03;8.4;;;1.9;;
537;SDS011;254;48.524;8.926;2022-11-24T06:31:03;9.3;;;2.0;;
537;SDS011;254;48.524;8.926;2022-11-24T06:32:02;13.2;;;2.3;;
537;SDS011;254;48.524;8.926;2022-11-24T06:33:02;7.4;;;1.9;;
537;SDS011;254;48.524;8.926;2022-11-24T06:34:04;8.6;;;1.9;;
537;SDS011;254;48.524;8.926;2022-11-24T06:35:02;12.3;;;2.1;;
537;SDS011;254;48.524;8.926;2022-11-24T06:36:03;9.7;;;2.8;;